sensor_id;sensor_type;location;lat;lon;timestamp;P1;durP1;ratioP1;P2;durP2;ratioP2
64500;SDS011;50874;24.150;-110.320;2023-06-04T00:02:01;16.08;;;3.85;;
64500;SDS011;50874;24.150;-110.320;2023-06-04T00:04:27;21.65;;;4.97;;
64500;SDS011;50874;24.150;-110.320;2023-06-04T00:06:55;20.42;;;3.42;;
64500;SDS011;50874;24.150;-110.320;2023-06-04T00:09:21;18.00;;;3.47;;
64500;SDS011;50874;24.150;-110.320;2023-06-04T00:11:48;21.92;;;3.85;;
64500;SDS011;50874;24.150;-110.320;2023-06-04T00:14:15;15.15;;;3.42;;
64500;SDS011;50874;24.150;-110.320;2023-06-04T00:16:41;13.15;;;3.97;;
64500;SDS011;50874;24.150;-110.320;2023-06-04T00:19:08;15.00;;;4.30;;
64500;SDS011;50874;24.150;-110.320;2023-06-04T00:21:34;13.98;;;3.65;;
64500;SDS011;50874;24.150;-110.320;2023-06-04T00:24:01;16.42;;;3.92;;
64500;SDS011;50874;24.150;-110.320;2023-06-04T00:26:28;8.70;;;3.13;;
64500;SDS011;50874;24.150;-110.320;2023-06-04T00:28:54;13.93;;;3.40;;
64500;SDS011;50874;24.150;-110.320;2023-06-04T00:31:21;18.25;;;3.70;;
64500;SDS011;50874;24.150;-110.320;2023-06-04T00:33:48;18.30;;;4.80;;
64500;SDS011;50874;24.150;-110.320;2023-06-04T00:36:14;15.45;;;4.10;;
64500;SDS011;50874;24.150;-110.320;2023-06-04T00:38:40;21.15;;;4.47;;
64500;SDS011;50874;24.150;-110.320;2023-06-04T00:41:07;16.92;;;3.85;;
64500;SDS011;50874;24.150;-110.320;2023-06-04T00:43:33;20.27;;;4.88;;
64500;SDS011;50874;24.150;-110.320;2023-06-04T00:46:01;21.77;;;4.22;;
64500;SDS011;50874;24.150;-110.320;2023-06-04T00:48:28;15.20;;;4.13;;
64500;SDS011;50874;24.150;-110.320;2023-06-04T00:50:56;20.55;;;4.10;;
64500;SDS011;50874;24.150;-110.320;2023-06-04T00:53:23;36.88;;;4.50;;
64500;SDS011;50874;24.150;-110.320;2023-06-04T00:55:51;28.38;;;5.18;;
64500;SDS011;50874;24.150;-110.320;2023-06-04T00:58:17;23.90;;;4.22;;
64500;SDS011;50874;24.150;-110.320;2023-06-04T01:00:45;22.30;;;4.45;;
64500;SDS011;50874;24.150;-110.320;2023-06-04T01:03:18;14.75;;;3.95;;
64500;SDS011;50874;24.150;-110.320;2023-06-04T01:05:57;25.42;;;4.63;;
64500;SDS011;50874;24.150;-110.320;2023-06-04T01:08:34;22.40;;;3.92;;
64500;SDS011;50874;24.150;-110.320;2023-06-04T01:11:02;22.65;;;4.43;;
64500;SDS011;50874;24.150;-110.320;2023-06-04T01:13:28;15.80;;;3.95;;
64500;SDS011;50874;24.150;-110.320;2023-06-04T01:15:55;17.13;;;5.05;;
64500;SDS011;50874;24.150;-110.320;2023-06-04T01:18:26;22.23;;;3.78;;
64500;SDS011;50874;24.150;-110.320;2023-06-04T01:21:07;18.95;;;4.25;;
64500;SDS011;50874;24.150;-110.320;2023-06-04T01:23:45;18.10;;;3.42;;
64500;SDS011;50874;24.150;-110.320;2023-06-04T01:26:30;17.27;;;4.07;;
64500;SDS011;50874;24.150;-110.320;2023-06-04T01:28:59;17.73;;;4.13;;
64500;SDS011;50874;24.150;-110.320;2023-06-04T01:31:27;26.05;;;4.60;;
64500;SDS011;50874;24.150;-110.320;2023-06-04T01:33:58;21.10;;;4.25;;
64500;SDS011;50874;24.150;-110.320;2023-06-04T01:36:25;25.35;;;5.57;;
64500;SDS011;50874;24.150;-110.320;2023-06-04T01:38:51;16.98;;;4.35;;
64500;SDS011;50874;24.150;-110.320;2023-06-04T01:41:18;20.40;;;4.78;;
64500;SDS011;50874;24.150;-110.320;2023-06-04T01:43:44;19.58;;;4.20;;
64500;SDS011;50874;24.150;-110.320;2023-06-04T01:46:11;15.93;;;4.18;;
64500;SDS011;50874;24.150;-110.320;2023-06-04T01:48:37;24.35;;;4.60;;
64500;SDS011;50874;24.150;-110.320;2023-06-04T01:51:06;23.88;;;5.22;;
64500;SDS011;50874;24.150;-110.320;2023-06-04T01:53:32;25.50;;;4.18;;
64500;SDS011;50874;24.150;-110.320;2023-06-04T01:55:59;24.10;;;4.25;;
64500;SDS011;50874;24.150;-110.320;2023-06-04T01:58:26;23.40;;;5.28;;
64500;SDS011;50874;24.150;-110.320;2023-06-04T02:00:54;24.73;;;6.00;;
64500;SDS011;50874;24.150;-110.320;2023-06-04T02:03:21;22.50;;;3.97;;
64500;SDS011;50874;24.150;-110.320;2023-06-04T02:05:49;26.80;;;4.68;;
64500;SDS011;50874;24.150;-110.320;2023-06-04T02:08:15;24.55;;;4.68;;
64500;SDS011;50874;24.150;-110.320;2023-06-04T02:10:47;23.63;;;5.75;;
64500;SDS011;50874;24.150;-110.320;2023-06-04T02:13:14;31.00;;;6.35;;
64500;SDS011;50874;24.150;-110.320;2023-06-04T02:15:41;26.77;;;5.07;;
64500;SDS011;50874;24.150;-110.320;2023-06-04T02:18:13;32.20;;;6.25;;
64500;SDS011;50874;24.150;-110.320;2023-06-04T02:20:46;35.95;;;6.15;;
64500;SDS011;50874;24.150;-110.320;2023-06-04T02:23:13;24.95;;;5.63;;
64500;SDS011;50874;24.150;-110.320;2023-06-04T02:25:41;24.10;;;6.15;;
64500;SDS011;50874;24.150;-110.320;2023-06-04T02:28:11;35.85;;;6.10;;
64500;SDS011;50874;24.150;-110.320;2023-06-04T02:30:38;31.95;;;5.18;;
64500;SDS011;50874;24.150;-110.320;2023-06-04T02:33:04;34.45;;;5.55;;
64500;SDS011;50874;24.150;-110.320;2023-06-04T02:35:31;32.10;;;6.03;;
64500;SDS011;50874;24.150;-110.320;2023-06-04T02:37:58;32.40;;;5.75;;
64500;SDS011;50874;24.150;-110.320;2023-06-04T02:40:25;31.05;;;5.93;;
64500;SDS011;50874;24.150;-110.320;2023-06-04T02:42:54;31.67;;;5.70;;
64500;SDS011;50874;24.150;-110.320;2023-06-04T02:45:24;41.03;;;7.22;;
64500;SDS011;50874;24.150;-110.320;2023-06-04T02:47:51;34.50;;;7.20;;
64500;SDS011;50874;24.150;-110.320;2023-06-04T02:50:18;33.47;;;6.55;;
64500;SDS011;50874;24.150;-110.320;2023-06-04T02:52:45;24.85;;;5.25;;
64500;SDS011;50874;24.150;-110.320;2023-06-04T02:55:11;37.17;;;6.50;;
64500;SDS011;50874;24.150;-110.320;2023-06-04T02:57:39;32.85;;;7.35;;
64500;SDS011;50874;24.150;-110.320;2023-06-04T03:00:10;37.25;;;6.32;;
64500;SDS011;50874;24.150;-110.320;2023-06-04T03:02:41;31.00;;;6.63;;
64500;SDS011;50874;24.150;-110.320;2023-06-04T03:05:09;32.55;;;6.70;;
64500;SDS011;50874;24.150;-110.320;2023-06-04T03:07:38;35.72;;;5.43;;
64500;SDS011;50874;24.150;-110.320;2023-06-04T03:10:07;43.47;;;8.05;;
64500;SDS011;50874;24.150;-110.320;2023-06-04T03:12:34;34.15;;;5.82;;
64500;SDS011;50874;24.150;-110.320;2023-06-04T03:15:00;29.95;;;6.50;;
64500;SDS011;50874;24.150;-110.320;2023-06-04T03:17:27;35.08;;;6.95;;
64500;SDS011;50874;24.150;-110.320;2023-06-04T03:19:54;38.33;;;7.43;;
64500;SDS011;50874;24.150;-110.320;2023-06-04T03:22:21;24.42;;;5.68;;
64500;SDS011;50874;24.150;-110.320;2023-06-04T03:24:47;30.75;;;6.97;;
64500;SDS011;50874;24.150;-110.320;2023-06-04T03:27:14;26.50;;;6.82;;
64500;SDS011;50874;24.150;-110.320;2023-06-04T03:29:40;29.98;;;6.80;;
64500;SDS011;50874;24.150;-110.320;2023-06-04T03:32:07;27.67;;;6.35;;
64500;SDS011;50874;24.150;-110.320;2023-06-04T03:34:34;36.28;;;7.15;;
64500;SDS011;50874;24.150;-110.320;2023-06-04T03:37:00;36.80;;;7.93;;
64500;SDS011;50874;24.150;-110.320;2023-06-04T03:39:27;32.67;;;6.68;;
64500;SDS011;50874;24.150;-110.320;2023-06-04T03:41:53;35.95;;;7.05;;
64500;SDS011;50874;24.150;-110.320;2023-06-04T03:44:21;27.35;;;6.07;;
64500;SDS011;50874;24.150;-110.320;2023-06-04T03:46:47;36.20;;;7.18;;
64500;SDS011;50874;24.150;-110.320;2023-06-04T03:49:14;39.13;;;6.55;;
64500;SDS011;50874;24.150;-110.320;2023-06-04T03:51:42;29.00;;;6.22;;
64500;SDS011;50874;24.150;-110.320;2023-06-04T03:54:09;34.88;;;7.13;;
64500;SDS011;50874;24.150;-110.320;2023-06-04T03:56:37;44.70;;;6.90;;
64500;SDS011;50874;24.150;-110.320;2023-06-04T03:59:04;32.85;;;6.65;;
64500;SDS011;50874;24.150;-110.320;2023-06-04T04:01:31;37.92;;;7.53;;
64500;SDS011;50874;24.150;-110.320;2023-06-04T04:03:58;38.25;;;7.03;;
64500;SDS011;50874;24.150;-110.320;2023-06-04T04:06:25;31.10;;;6.95;;
64500;SDS011;50874;24.150;-110.320;2023-06-04T04:08:51;32.58;;;6.97;;
64500;SDS011;50874;24.150;-110.320;2023-06-04T04:11:18;43.53;;;7.50;;
64500;SDS011;50874;24.150;-110.320;2023-06-04T04:13:45;39.72;;;6.82;;
64500;SDS011;50874;24.150;-110.320;2023-06-04T04:16:12;32.97;;;7.07;;
64500;SDS011;50874;24.150;-110.320;2023-06-04T04:18:40;32.47;;;6.50;;
64500;SDS011;50874;24.150;-110.320;2023-06-04T04:21:08;33.47;;;8.35;;
64500;SDS011;50874;24.150;-110.320;2023-06-04T04:23:37;36.65;;;8.32;;
64500;SDS011;50874;24.150;-110.320;2023-06-04T04:26:05;30.02;;;6.80;;
64500;SDS011;50874;24.150;-110.320;2023-06-04T04:28:33;37.13;;;6.53;;
64500;SDS011;50874;24.150;-110.320;2023-06-04T04:31:00;46.03;;;8.32;;
64500;SDS011;50874;24.150;-110.320;2023-06-04T04:33:28;37.15;;;6.22;;
64500;SDS011;50874;24.150;-110.320;2023-06-04T04:35:58;33.50;;;7.85;;
64500;SDS011;50874;24.150;-110.320;2023-06-04T04:38:25;30.42;;;6.25;;
64500;SDS011;50874;24.150;-110.320;2023-06-04T04:40:54;27.55;;;7.18;;
64500;SDS011;50874;24.150;-110.320;2023-06-04T04:46:00;39.17;;;7.32;;
64500;SDS011;50874;24.150;-110.320;2023-06-04T04:48:27;41.35;;;7.22;;
64500;SDS011;50874;24.150;-110.320;2023-06-04T04:50:53;39.97;;;7.10;;
64500;SDS011;50874;24.150;-110.320;2023-06-04T04:53:20;28.83;;;7.18;;
64500;SDS011;50874;24.150;-110.320;2023-06-04T04:55:47;32.92;;;6.55;;
64500;SDS011;50874;24.150;-110.320;2023-06-04T04:58:13;34.47;;;7.53;;
64500;SDS011;50874;24.150;-110.320;2023-06-04T05:00:40;40.40;;;8.20;;
64500;SDS011;50874;24.150;-110.320;2023-06-04T05:03:07;31.73;;;6.75;;
64500;SDS011;50874;24.150;-110.320;2023-06-04T05:05:33;35.97;;;7.03;;
64500;SDS011;50874;24.150;-110.320;2023-06-04T05:08:00;31.75;;;6.85;;
64500;SDS011;50874;24.150;-110.320;2023-06-04T05:10:30;32.67;;;6.68;;
64500;SDS011;50874;24.150;-110.320;2023-06-04T05:12:58;31.23;;;7.80;;
64500;SDS011;50874;24.150;-110.320;2023-06-04T05:15:28;32.90;;;6.18;;
64500;SDS011;50874;24.150;-110.320;2023-06-04T05:17:54;37.35;;;6.82;;
64500;SDS011;50874;24.150;-110.320;2023-06-04T05:20:21;38.08;;;6.40;;
64500;SDS011;50874;24.150;-110.320;2023-06-04T05:22:48;36.40;;;6.35;;
64500;SDS011;50874;24.150;-110.320;2023-06-04T05:25:15;33.63;;;8.63;;
64500;SDS011;50874;24.150;-110.320;2023-06-04T05:27:42;35.38;;;6.57;;
64500;SDS011;50874;24.150;-110.320;2023-06-04T05:30:09;37.67;;;7.50;;
64500;SDS011;50874;24.150;-110.320;2023-06-04T05:32:36;37.22;;;5.93;;
64500;SDS011;50874;24.150;-110.320;2023-06-04T05:35:06;39.22;;;7.18;;
64500;SDS011;50874;24.150;-110.320;2023-06-04T05:37:33;35.72;;;7.30;;
64500;SDS011;50874;24.150;-110.320;2023-06-04T05:40:00;31.73;;;6.57;;
64500;SDS011;50874;24.150;-110.320;2023-06-04T05:42:28;39.40;;;7.65;;
64500;SDS011;50874;24.150;-110.320;2023-06-04T05:44:54;42.50;;;7.45;;
64500;SDS011;50874;24.150;-110.320;2023-06-04T05:47:21;35.72;;;7.18;;
64500;SDS011;50874;24.150;-110.320;2023-06-04T05:49:47;35.65;;;6.93;;
64500;SDS011;50874;24.150;-110.320;2023-06-04T05:52:14;40.47;;;7.28;;
64500;SDS011;50874;24.150;-110.320;2023-06-04T05:54:40;24.83;;;6.82;;
64500;SDS011;50874;24.150;-110.320;2023-06-04T05:57:07;31.92;;;7.57;;
64500;SDS011;50874;24.150;-110.320;2023-06-04T05:59:33;41.85;;;6.88;;
64500;SDS011;50874;24.150;-110.320;2023-06-04T06:02:00;34.92;;;7.25;;
64500;SDS011;50874;24.150;-110.320;2023-06-04T06:04:27;31.75;;;7.63;;
64500;SDS011;50874;24.150;-110.320;2023-06-04T06:06:54;39.97;;;7.75;;
64500;SDS011;50874;24.150;-110.320;2023-06-04T06:09:21;40.22;;;7.63;;
64500;SDS011;50874;24.150;-110.320;2023-06-04T06:11:47;33.72;;;7.70;;
64500;SDS011;50874;24.150;-110.320;2023-06-04T06:14:14;35.40;;;7.45;;
64500;SDS011;50874;24.150;-110.320;2023-06-04T06:16:41;43.20;;;7.13;;
64500;SDS011;50874;24.150;-110.320;2023-06-04T06:19:07;34.60;;;7.50;;
64500;SDS011;50874;24.150;-110.320;2023-06-04T06:21:33;20.23;;;6.38;;
64500;SDS011;50874;24.150;-110.320;2023-06-04T06:24:01;44.35;;;7.00;;
64500;SDS011;50874;24.150;-110.320;2023-06-04T06:26:27;35.60;;;6.78;;
64500;SDS011;50874;24.150;-110.320;2023-06-04T06:28:55;41.15;;;8.52;;
64500;SDS011;50874;24.150;-110.320;2023-06-04T06:31:21;32.30;;;7.68;;
64500;SDS011;50874;24.150;-110.320;2023-06-04T06:33:48;39.05;;;8.40;;
64500;SDS011;50874;24.150;-110.320;2023-06-04T06:36:14;40.20;;;8.40;;
64500;SDS011;50874;24.150;-110.320;2023-06-04T06:38:42;39.00;;;7.97;;
64500;SDS011;50874;24.150;-110.320;2023-06-04T06:41:08;39.63;;;8.57;;
64500;SDS011;50874;24.150;-110.320;2023-06-04T06:43:34;33.05;;;7.03;;
64500;SDS011;50874;24.150;-110.320;2023-06-04T06:46:01;31.60;;;7.63;;
64500;SDS011;50874;24.150;-110.320;2023-06-04T06:48:27;44.92;;;8.20;;
64500;SDS011;50874;24.150;-110.320;2023-06-04T06:50:54;36.75;;;7.80;;
64500;SDS011;50874;24.150;-110.320;2023-06-04T06:53:21;37.80;;;8.32;;
64500;SDS011;50874;24.150;-110.320;2023-06-04T06:55:47;28.25;;;6.88;;
64500;SDS011;50874;24.150;-110.320;2023-06-04T06:58:14;43.22;;;7.78;;
64500;SDS011;50874;24.150;-110.320;2023-06-04T07:00:40;33.08;;;7.95;;
64500;SDS011;50874;24.150;-110.320;2023-06-04T07:03:07;35.22;;;8.20;;
64500;SDS011;50874;24.150;-110.320;2023-06-04T07:05:33;33.92;;;8.35;;
64500;SDS011;50874;24.150;-110.320;2023-06-04T07:08:00;35.85;;;8.45;;
64500;SDS011;50874;24.150;-110.320;2023-06-04T07:10:28;35.58;;;7.38;;
64500;SDS011;50874;24.150;-110.320;2023-06-04T07:12:55;32.10;;;6.57;;
64500;SDS011;50874;24.150;-110.320;2023-06-04T07:15:22;34.03;;;8.02;;
64500;SDS011;50874;24.150;-110.320;2023-06-04T07:17:48;33.10;;;7.28;;
64500;SDS011;50874;24.150;-110.320;2023-06-04T07:20:15;36.50;;;6.95;;
64500;SDS011;50874;24.150;-110.320;2023-06-04T07:22:41;48.22;;;7.60;;
64500;SDS011;50874;24.150;-110.320;2023-06-04T07:25:08;28.00;;;6.90;;
64500;SDS011;50874;24.150;-110.320;2023-06-04T07:27:34;35.53;;;7.25;;
64500;SDS011;50874;24.150;-110.320;2023-06-04T07:30:01;40.83;;;8.00;;
64500;SDS011;50874;24.150;-110.320;2023-06-04T07:32:28;35.85;;;7.53;;
64500;SDS011;50874;24.150;-110.320;2023-06-04T07:34:54;30.25;;;6.88;;
64500;SDS011;50874;24.150;-110.320;2023-06-04T07:37:21;35.70;;;6.70;;
64500;SDS011;50874;24.150;-110.320;2023-06-04T07:39:47;33.25;;;6.85;;
64500;SDS011;50874;24.150;-110.320;2023-06-04T07:42:13;34.30;;;7.25;;
64500;SDS011;50874;24.150;-110.320;2023-06-04T07:44:40;39.10;;;8.20;;
64500;SDS011;50874;24.150;-110.320;2023-06-04T07:47:06;33.28;;;7.13;;
64500;SDS011;50874;24.150;-110.320;2023-06-04T07:49:33;38.65;;;6.63;;
64500;SDS011;50874;24.150;-110.320;2023-06-04T07:51:59;33.75;;;6.82;;
64500;SDS011;50874;24.150;-110.320;2023-06-04T07:54:26;38.22;;;7.93;;
64500;SDS011;50874;24.150;-110.320;2023-06-04T07:56:52;32.17;;;5.78;;
64500;SDS011;50874;24.150;-110.320;2023-06-04T07:59:22;27.55;;;6.28;;
64500;SDS011;50874;24.150;-110.320;2023-06-04T08:01:51;36.55;;;7.80;;
64500;SDS011;50874;24.150;-110.320;2023-06-04T08:04:18;39.92;;;7.10;;
64500;SDS011;50874;24.150;-110.320;2023-06-04T08:06:44;36.67;;;7.25;;
64500;SDS011;50874;24.150;-110.320;2023-06-04T08:09:11;34.13;;;7.75;;
64500;SDS011;50874;24.150;-110.320;2023-06-04T08:11:39;38.25;;;7.78;;
64500;SDS011;50874;24.150;-110.320;2023-06-04T08:14:08;38.20;;;7.72;;
64500;SDS011;50874;24.150;-110.320;2023-06-04T08:16:35;38.65;;;8.40;;
64500;SDS011;50874;24.150;-110.320;2023-06-04T08:19:02;35.22;;;6.93;;
64500;SDS011;50874;24.150;-110.320;2023-06-04T08:21:28;38.22;;;7.32;;
64500;SDS011;50874;24.150;-110.320;2023-06-04T08:23:55;30.88;;;7.90;;
64500;SDS011;50874;24.150;-110.320;2023-06-04T08:26:22;36.40;;;7.45;;
64500;SDS011;50874;24.150;-110.320;2023-06-04T08:28:48;34.78;;;7.28;;
64500;SDS011;50874;24.150;-110.320;2023-06-04T08:31:16;44.58;;;9.02;;
64500;SDS011;50874;24.150;-110.320;2023-06-04T08:33:44;33.90;;;7.63;;
64500;SDS011;50874;24.150;-110.320;2023-06-04T08:36:11;37.08;;;7.25;;
64500;SDS011;50874;24.150;-110.320;2023-06-04T08:38:38;38.80;;;8.23;;
64500;SDS011;50874;24.150;-110.320;2023-06-04T08:41:09;42.00;;;8.65;;
64500;SDS011;50874;24.150;-110.320;2023-06-04T08:43:41;38.63;;;6.63;;
64500;SDS011;50874;24.150;-110.320;2023-06-04T08:46:12;32.45;;;7.30;;
64500;SDS011;50874;24.150;-110.320;2023-06-04T08:48:40;30.15;;;6.28;;
64500;SDS011;50874;24.150;-110.320;2023-06-04T08:51:06;29.65;;;6.93;;
64500;SDS011;50874;24.150;-110.320;2023-06-04T08:53:34;30.00;;;6.70;;
64500;SDS011;50874;24.150;-110.320;2023-06-04T08:56:04;31.55;;;6.60;;
64500;SDS011;50874;24.150;-110.320;2023-06-04T08:58:31;31.80;;;6.70;;
64500;SDS011;50874;24.150;-110.320;2023-06-04T09:00:59;25.38;;;7.47;;
64500;SDS011;50874;24.150;-110.320;2023-06-04T09:03:26;35.50;;;7.68;;
64500;SDS011;50874;24.150;-110.320;2023-06-04T09:05:58;30.52;;;8.27;;
64500;SDS011;50874;24.150;-110.320;2023-06-04T09:08:26;32.78;;;6.28;;
64500;SDS011;50874;24.150;-110.320;2023-06-04T09:10:56;34.55;;;7.55;;
64500;SDS011;50874;24.150;-110.320;2023-06-04T09:13:27;35.65;;;6.53;;
64500;SDS011;50874;24.150;-110.320;2023-06-04T09:16:04;37.90;;;6.57;;
64500;SDS011;50874;24.150;-110.320;2023-06-04T09:18:34;26.95;;;6.25;;
64500;SDS011;50874;24.150;-110.320;2023-06-04T09:21:03;25.63;;;6.63;;
64500;SDS011;50874;24.150;-110.320;2023-06-04T09:23:39;30.98;;;7.53;;
64500;SDS011;50874;24.150;-110.320;2023-06-04T09:26:10;26.10;;;6.22;;
64500;SDS011;50874;24.150;-110.320;2023-06-04T09:28:40;28.45;;;6.10;;
64500;SDS011;50874;24.150;-110.320;2023-06-04T09:31:14;27.92;;;5.68;;
64500;SDS011;50874;24.150;-110.320;2023-06-04T09:33:42;32.97;;;6.38;;
64500;SDS011;50874;24.150;-110.320;2023-06-04T09:36:12;26.45;;;5.88;;
64500;SDS011;50874;24.150;-110.320;2023-06-04T09:38:39;31.40;;;6.25;;
64500;SDS011;50874;24.150;-110.320;2023-06-04T09:41:13;33.88;;;6.13;;
64500;SDS011;50874;24.150;-110.320;2023-06-04T09:43:40;29.08;;;6.40;;
64500;SDS011;50874;24.150;-110.320;2023-06-04T09:46:12;26.98;;;5.72;;
64500;SDS011;50874;24.150;-110.320;2023-06-04T09:48:41;25.23;;;5.88;;
64500;SDS011;50874;24.150;-110.320;2023-06-04T09:51:08;33.25;;;6.65;;
64500;SDS011;50874;24.150;-110.320;2023-06-04T09:53:37;29.20;;;6.68;;
64500;SDS011;50874;24.150;-110.320;2023-06-04T09:56:04;23.00;;;6.75;;
64500;SDS011;50874;24.150;-110.320;2023-06-04T09:58:37;25.75;;;5.43;;
64500;SDS011;50874;24.150;-110.320;2023-06-04T10:01:04;24.27;;;5.10;;
64500;SDS011;50874;24.150;-110.320;2023-06-04T10:03:32;31.15;;;6.35;;
64500;SDS011;50874;24.150;-110.320;2023-06-04T10:06:01;25.00;;;6.80;;
64500;SDS011;50874;24.150;-110.320;2023-06-04T10:08:29;27.27;;;6.70;;
64500;SDS011;50874;24.150;-110.320;2023-06-04T10:10:58;15.98;;;4.53;;
64500;SDS011;50874;24.150;-110.320;2023-06-04T10:13:27;18.85;;;5.15;;
64500;SDS011;50874;24.150;-110.320;2023-06-04T10:16:04;22.63;;;4.80;;
64500;SDS011;50874;24.150;-110.320;2023-06-04T10:18:32;22.88;;;5.43;;
64500;SDS011;50874;24.150;-110.320;2023-06-04T10:20:59;21.58;;;4.30;;
64500;SDS011;50874;24.150;-110.320;2023-06-04T10:23:27;26.05;;;5.70;;
64500;SDS011;50874;24.150;-110.320;2023-06-04T10:25:54;38.13;;;7.00;;
64500;SDS011;50874;24.150;-110.320;2023-06-04T10:28:22;19.60;;;5.18;;
64500;SDS011;50874;24.150;-110.320;2023-06-04T10:30:49;23.23;;;4.55;;
64500;SDS011;50874;24.150;-110.320;2023-06-04T10:33:17;27.63;;;5.45;;
64500;SDS011;50874;24.150;-110.320;2023-06-04T10:35:50;19.33;;;5.80;;
64500;SDS011;50874;24.150;-110.320;2023-06-04T10:38:22;24.05;;;5.28;;
64500;SDS011;50874;24.150;-110.320;2023-06-04T10:40:49;23.25;;;4.80;;
64500;SDS011;50874;24.150;-110.320;2023-06-04T10:43:16;35.33;;;6.30;;
64500;SDS011;50874;24.150;-110.320;2023-06-04T10:45:44;42.67;;;6.70;;
64500;SDS011;50874;24.150;-110.320;2023-06-04T10:48:11;32.55;;;5.57;;
64500;SDS011;50874;24.150;-110.320;2023-06-04T10:50:49;22.48;;;5.95;;
64500;SDS011;50874;24.150;-110.320;2023-06-04T10:53:17;27.67;;;4.82;;
64500;SDS011;50874;24.150;-110.320;2023-06-04T10:55:48;30.55;;;4.93;;
64500;SDS011;50874;24.150;-110.320;2023-06-04T10:58:15;22.40;;;6.13;;
64500;SDS011;50874;24.150;-110.320;2023-06-04T11:00:43;25.10;;;6.25;;
64500;SDS011;50874;24.150;-110.320;2023-06-04T11:03:12;24.77;;;5.53;;
64500;SDS011;50874;24.150;-110.320;2023-06-04T11:05:43;40.40;;;5.88;;
64500;SDS011;50874;24.150;-110.320;2023-06-04T11:08:11;37.28;;;6.93;;
64500;SDS011;50874;24.150;-110.320;2023-06-04T11:10:41;33.95;;;6.22;;
64500;SDS011;50874;24.150;-110.320;2023-06-04T11:13:11;23.42;;;5.30;;
64500;SDS011;50874;24.150;-110.320;2023-06-04T11:15:41;20.67;;;5.05;;
64500;SDS011;50874;24.150;-110.320;2023-06-04T11:18:16;19.40;;;5.30;;
64500;SDS011;50874;24.150;-110.320;2023-06-04T11:20:44;24.35;;;5.80;;
64500;SDS011;50874;24.150;-110.320;2023-06-04T11:23:12;32.15;;;6.70;;
64500;SDS011;50874;24.150;-110.320;2023-06-04T11:25:40;21.35;;;5.07;;
64500;SDS011;50874;24.150;-110.320;2023-06-04T11:28:16;29.55;;;5.72;;
64500;SDS011;50874;24.150;-110.320;2023-06-04T11:30:43;29.23;;;4.88;;
64500;SDS011;50874;24.150;-110.320;2023-06-04T11:33:21;24.00;;;5.43;;
64500;SDS011;50874;24.150;-110.320;2023-06-04T11:35:47;37.45;;;6.38;;
64500;SDS011;50874;24.150;-110.320;2023-06-04T11:38:14;33.13;;;5.72;;
64500;SDS011;50874;24.150;-110.320;2023-06-04T11:40:40;32.53;;;6.65;;
64500;SDS011;50874;24.150;-110.320;2023-06-04T11:43:11;24.60;;;4.95;;
64500;SDS011;50874;24.150;-110.320;2023-06-04T11:45:38;25.17;;;5.95;;
64500;SDS011;50874;24.150;-110.320;2023-06-04T11:48:05;23.92;;;5.22;;
64500;SDS011;50874;24.150;-110.320;2023-06-04T11:50:36;17.42;;;5.03;;
64500;SDS011;50874;24.150;-110.320;2023-06-04T11:53:02;25.77;;;5.13;;
64500;SDS011;50874;24.150;-110.320;2023-06-04T11:55:29;21.08;;;5.95;;
64500;SDS011;50874;24.150;-110.320;2023-06-04T11:57:56;25.38;;;5.57;;
64500;SDS011;50874;24.150;-110.320;2023-06-04T12:00:22;18.55;;;5.65;;
64500;SDS011;50874;24.150;-110.320;2023-06-04T12:02:54;27.17;;;5.10;;
64500;SDS011;50874;24.150;-110.320;2023-06-04T12:05:30;22.85;;;5.75;;
64500;SDS011;50874;24.150;-110.320;2023-06-04T12:08:04;26.23;;;6.07;;
64500;SDS011;50874;24.150;-110.320;2023-06-04T12:10:36;23.60;;;5.32;;
64500;SDS011;50874;24.150;-110.320;2023-06-04T12:13:06;29.98;;;5.30;;
64500;SDS011;50874;24.150;-110.320;2023-06-04T12:15:33;16.83;;;4.68;;
64500;SDS011;50874;24.150;-110.320;2023-06-04T12:18:00;19.17;;;4.60;;
64500;SDS011;50874;24.150;-110.320;2023-06-04T12:20:33;22.88;;;4.35;;
64500;SDS011;50874;24.150;-110.320;2023-06-04T12:23:03;16.75;;;3.80;;
64500;SDS011;50874;24.150;-110.320;2023-06-04T12:25:31;16.55;;;4.68;;
64500;SDS011;50874;24.150;-110.320;2023-06-04T12:27:59;24.75;;;4.85;;
64500;SDS011;50874;24.150;-110.320;2023-06-04T12:30:39;31.13;;;5.25;;
64500;SDS011;50874;24.150;-110.320;2023-06-04T12:33:06;19.58;;;4.03;;
64500;SDS011;50874;24.150;-110.320;2023-06-04T12:35:33;21.95;;;4.63;;
64500;SDS011;50874;24.150;-110.320;2023-06-04T12:38:02;25.33;;;4.78;;
64500;SDS011;50874;24.150;-110.320;2023-06-04T12:40:29;21.17;;;4.45;;
64500;SDS011;50874;24.150;-110.320;2023-06-04T12:42:56;25.00;;;4.40;;
64500;SDS011;50874;24.150;-110.320;2023-06-04T12:45:22;25.80;;;5.45;;
64500;SDS011;50874;24.150;-110.320;2023-06-04T12:47:49;33.45;;;4.63;;
64500;SDS011;50874;24.150;-110.320;2023-06-04T12:50:15;29.23;;;6.40;;
64500;SDS011;50874;24.150;-110.320;2023-06-04T12:52:43;18.23;;;4.53;;
64500;SDS011;50874;24.150;-110.320;2023-06-04T12:55:09;28.35;;;5.40;;
64500;SDS011;50874;24.150;-110.320;2023-06-04T12:57:36;27.73;;;4.95;;
64500;SDS011;50874;24.150;-110.320;2023-06-04T13:00:02;24.33;;;4.88;;
64500;SDS011;50874;24.150;-110.320;2023-06-04T13:02:30;20.35;;;4.50;;
64500;SDS011;50874;24.150;-110.320;2023-06-04T13:04:56;25.30;;;4.93;;
64500;SDS011;50874;24.150;-110.320;2023-06-04T13:07:23;20.88;;;5.00;;
64500;SDS011;50874;24.150;-110.320;2023-06-04T13:09:49;17.10;;;4.75;;
64500;SDS011;50874;24.150;-110.320;2023-06-04T13:12:15;108.32;;;12.02;;
64500;SDS011;50874;24.150;-110.320;2023-06-04T13:14:42;33.88;;;4.97;;
64500;SDS011;50874;24.150;-110.320;2023-06-04T13:17:09;22.80;;;4.50;;
64500;SDS011;50874;24.150;-110.320;2023-06-04T13:19:35;28.90;;;5.38;;
64500;SDS011;50874;24.150;-110.320;2023-06-04T13:22:02;49.20;;;4.60;;
64500;SDS011;50874;24.150;-110.320;2023-06-04T13:24:28;15.27;;;3.65;;
64500;SDS011;50874;24.150;-110.320;2023-06-04T13:26:54;18.13;;;3.38;;
64500;SDS011;50874;24.150;-110.320;2023-06-04T13:29:23;17.75;;;4.03;;
64500;SDS011;50874;24.150;-110.320;2023-06-04T13:31:49;16.77;;;3.53;;
64500;SDS011;50874;24.150;-110.320;2023-06-04T13:34:18;10.82;;;3.33;;
64500;SDS011;50874;24.150;-110.320;2023-06-04T13:36:44;12.70;;;2.95;;
64500;SDS011;50874;24.150;-110.320;2023-06-04T13:39:10;13.13;;;3.63;;
64500;SDS011;50874;24.150;-110.320;2023-06-04T13:41:37;9.25;;;2.67;;
64500;SDS011;50874;24.150;-110.320;2023-06-04T13:44:03;16.92;;;2.97;;
64500;SDS011;50874;24.150;-110.320;2023-06-04T13:46:30;11.98;;;2.92;;
64500;SDS011;50874;24.150;-110.320;2023-06-04T13:48:56;8.98;;;2.38;;
64500;SDS011;50874;24.150;-110.320;2023-06-04T13:51:23;17.58;;;3.30;;
64500;SDS011;50874;24.150;-110.320;2023-06-04T13:53:49;15.68;;;3.55;;
64500;SDS011;50874;24.150;-110.320;2023-06-04T13:56:18;19.75;;;3.75;;
64500;SDS011;50874;24.150;-110.320;2023-06-04T13:58:45;13.68;;;3.42;;
64500;SDS011;50874;24.150;-110.320;2023-06-04T14:01:11;11.18;;;3.15;;
64500;SDS011;50874;24.150;-110.320;2023-06-04T14:03:38;13.70;;;3.10;;